sensor_id;sensor_type;location;lat;lon;timestamp;temperature;humidity
4501;DHT22;2263;54.654;9.410;2022-11-27T00:02:15;7.50;96.20
4501;DHT22;2263;54.654;9.410;2022-11-27T00:04:42;7.50;96.40
4501;DHT22;2263;54.654;9.410;2022-11-27T00:07:09;7.50;96.20
4501;DHT22;2263;54.654;9.410;2022-11-27T00:09:37;7.50;96.10
4501;DHT22;2263;54.654;9.410;2022-11-27T00:12:05;7.50;96.30
4501;DHT22;2263;54.654;9.410;2022-11-27T00:14:32;7.50;96.20
4501;DHT22;2263;54.654;9.410;2022-11-27T00:16:59;7.50;96.20
4501;DHT22;2263;54.654;9.410;2022-11-27T00:19:26;7.50;96.30
4501;DHT22;2263;54.654;9.410;2022-11-27T00:21:55;7.50;96.20
4501;DHT22;2263;54.654;9.410;2022-11-27T00:24:22;7.50;96.40
4501;DHT22;2263;54.654;9.410;2022-11-27T00:26:49;7.50;96.30
4501;DHT22;2263;54.654;9.410;2022-11-27T00:29:16;7.50;96.40
4501;DHT22;2263;54.654;9.410;2022-11-27T00:31:43;7.50;96.30
4501;DHT22;2263;54.654;9.410;2022-11-27T00:34:11;7.50;96.40
4501;DHT22;2263;54.654;9.410;2022-11-27T00:36:38;7.50;96.40
4501;DHT22;2263;54.654;9.410;2022-11-27T00:39:12;7.50;96.30
4501;DHT22;2263;54.654;9.410;2022-11-27T00:41:39;7.50;96.30
4501;DHT22;2263;54.654;9.410;2022-11-27T00:44:06;7.50;96.50
4501;DHT22;2263;54.654;9.410;2022-11-27T00:46:34;7.50;96.40
4501;DHT22;2263;54.654;9.410;2022-11-27T00:49:04;7.50;96.40
4501;DHT22;2263;54.654;9.410;2022-11-27T00:51:31;7.50;96.50
4501;DHT22;2263;54.654;9.410;2022-11-27T00:53:59;7.50;96.60
4501;DHT22;2263;54.654;9.410;2022-11-27T00:56:29;7.50;96.50
4501;DHT22;2263;54.654;9.410;2022-11-27T00:58:56;7.50;96.70
4501;DHT22;2263;54.654;9.410;2022-11-27T01:01:40;7.50;96.60
4501;DHT22;2263;54.654;9.410;2022-11-27T01:04:12;7.50;96.50
4501;DHT22;2263;54.654;9.410;2022-11-27T01:06:40;7.50;96.60
4501;DHT22;2263;54.654;9.410;2022-11-27T01:09:10;7.50;96.60
4501;DHT22;2263;54.654;9.410;2022-11-27T01:11:38;7.40;96.50
4501;DHT22;2263;54.654;9.410;2022-11-27T01:14:09;7.50;96.40
4501;DHT22;2263;54.654;9.410;2022-11-27T01:16:36;7.50;96.60
4501;DHT22;2263;54.654;9.410;2022-11-27T01:19:10;7.50;96.60
4501;DHT22;2263;54.654;9.410;2022-11-27T01:21:38;7.50;96.70
4501;DHT22;2263;54.654;9.410;2022-11-27T01:24:05;7.50;96.70
4501;DHT22;2263;54.654;9.410;2022-11-27T01:26:33;7.50;96.80
4501;DHT22;2263;54.654;9.410;2022-11-27T01:29:00;7.50;96.80
4501;DHT22;2263;54.654;9.410;2022-11-27T01:31:29;7.50;96.70
4501;DHT22;2263;54.654;9.410;2022-11-27T01:33:59;7.50;96.50
4501;DHT22;2263;54.654;9.410;2022-11-27T01:36:28;7.50;96.60
4501;DHT22;2263;54.654;9.410;2022-11-27T01:38:55;7.50;96.50
4501;DHT22;2263;54.654;9.410;2022-11-27T01:41:26;7.50;96.60
4501;DHT22;2263;54.654;9.410;2022-11-27T01:44:03;7.50;96.60
4501;DHT22;2263;54.654;9.410;2022-11-27T01:46:45;7.50;96.60
4501;DHT22;2263;54.654;9.410;2022-11-27T01:49:24;7.50;96.60
4501;DHT22;2263;54.654;9.410;2022-11-27T01:52:10;7.50;96.80
4501;DHT22;2263;54.654;9.410;2022-11-27T01:54:39;7.50;96.80
4501;DHT22;2263;54.654;9.410;2022-11-27T01:57:14;7.50;96.90
4501;DHT22;2263;54.654;9.410;2022-11-27T01:59:43;7.50;96.70
4501;DHT22;2263;54.654;9.410;2022-11-27T02:02:11;7.50;96.70
4501;DHT22;2263;54.654;9.410;2022-11-27T02:04:38;7.50;96.70
4501;DHT22;2263;54.654;9.410;2022-11-27T02:07:06;7.50;96.80
4501;DHT22;2263;54.654;9.410;2022-11-27T02:09:33;7.50;96.90
4501;DHT22;2263;54.654;9.410;2022-11-27T02:12:15;7.50;96.70
4501;DHT22;2263;54.654;9.410;2022-11-27T02:15:02;7.50;96.80
4501;DHT22;2263;54.654;9.410;2022-11-27T02:30:45;7.50;96.50
4501;DHT22;2263;54.654;9.410;2022-11-27T02:33:18;7.50;96.50
4501;DHT22;2263;54.654;9.410;2022-11-27T02:36:10;7.50;96.50
4501;DHT22;2263;54.654;9.410;2022-11-27T02:38:52;7.50;96.70
4501;DHT22;2263;54.654;9.410;2022-11-27T02:41:32;7.50;96.80
4501;DHT22;2263;54.654;9.410;2022-11-27T02:44:05;7.50;96.50
4501;DHT22;2263;54.654;9.410;2022-11-27T02:46:33;7.40;96.50
4501;DHT22;2263;54.654;9.410;2022-11-27T02:49:07;7.40;96.30
4501;DHT22;2263;54.654;9.410;2022-11-27T02:51:39;7.50;96.50
4501;DHT22;2263;54.654;9.410;2022-11-27T02:54:12;7.50;96.40
4501;DHT22;2263;54.654;9.410;2022-11-27T02:56:41;7.50;96.50
4501;DHT22;2263;54.654;9.410;2022-11-27T02:59:11;7.50;96.40
4501;DHT22;2263;54.654;9.410;2022-11-27T03:01:49;7.40;96.50
4501;DHT22;2263;54.654;9.410;2022-11-27T03:04:21;7.40;96.50
4501;DHT22;2263;54.654;9.410;2022-11-27T03:06:54;7.50;96.50
4501;DHT22;2263;54.654;9.410;2022-11-27T03:09:27;7.40;96.30
4501;DHT22;2263;54.654;9.410;2022-11-27T03:11:55;7.40;96.40
4501;DHT22;2263;54.654;9.410;2022-11-27T03:14:23;7.40;96.50
4501;DHT22;2263;54.654;9.410;2022-11-27T03:22:00;7.40;96.40
4501;DHT22;2263;54.654;9.410;2022-11-27T03:24:29;7.40;96.30
4501;DHT22;2263;54.654;9.410;2022-11-27T03:26:59;7.40;96.30
4501;DHT22;2263;54.654;9.410;2022-11-27T03:29:46;7.40;96.30
4501;DHT22;2263;54.654;9.410;2022-11-27T03:32:14;7.40;96.30
4501;DHT22;2263;54.654;9.410;2022-11-27T03:34:42;7.40;96.60
4501;DHT22;2263;54.654;9.410;2022-11-27T03:37:10;7.40;96.40
4501;DHT22;2263;54.654;9.410;2022-11-27T03:39:38;7.40;96.30
4501;DHT22;2263;54.654;9.410;2022-11-27T03:42:26;7.40;96.20
4501;DHT22;2263;54.654;9.410;2022-11-27T03:53:17;7.40;96.20
4501;DHT22;2263;54.654;9.410;2022-11-27T03:58:55;7.40;96.20
4501;DHT22;2263;54.654;9.410;2022-11-27T04:01:25;7.40;96.10
4501;DHT22;2263;54.654;9.410;2022-11-27T04:03:53;7.40;96.10
4501;DHT22;2263;54.654;9.410;2022-11-27T04:06:20;7.40;96.20
4501;DHT22;2263;54.654;9.410;2022-11-27T04:08:48;7.40;96.20
4501;DHT22;2263;54.654;9.410;2022-11-27T04:11:15;7.40;96.10
4501;DHT22;2263;54.654;9.410;2022-11-27T04:13:43;7.40;96.10
4501;DHT22;2263;54.654;9.410;2022-11-27T04:16:10;7.40;96.10
4501;DHT22;2263;54.654;9.410;2022-11-27T04:18:37;7.40;96.10
4501;DHT22;2263;54.654;9.410;2022-11-27T04:21:04;7.40;96.10
4501;DHT22;2263;54.654;9.410;2022-11-27T04:23:32;7.40;96.20
4501;DHT22;2263;54.654;9.410;2022-11-27T04:25:59;7.40;96.10
4501;DHT22;2263;54.654;9.410;2022-11-27T04:28:26;7.40;96.10
4501;DHT22;2263;54.654;9.410;2022-11-27T04:30:53;7.30;96.00
4501;DHT22;2263;54.654;9.410;2022-11-27T04:33:21;7.40;96.10
4501;DHT22;2263;54.654;9.410;2022-11-27T04:35:49;7.30;96.00
4501;DHT22;2263;54.654;9.410;2022-11-27T04:38:17;7.30;96.00
4501;DHT22;2263;54.654;9.410;2022-11-27T04:40:44;7.30;96.00
4501;DHT22;2263;54.654;9.410;2022-11-27T04:43:12;7.30;96.00
4501;DHT22;2263;54.654;9.410;2022-11-27T04:45:39;7.30;95.90
4501;DHT22;2263;54.654;9.410;2022-11-27T04:48:07;7.30;95.90
4501;DHT22;2263;54.654;9.410;2022-11-27T04:50:34;7.30;95.90
4501;DHT22;2263;54.654;9.410;2022-11-27T04:53:01;7.30;95.80
4501;DHT22;2263;54.654;9.410;2022-11-27T04:55:28;7.30;95.90
4501;DHT22;2263;54.654;9.410;2022-11-27T04:57:55;7.30;95.80
4501;DHT22;2263;54.654;9.410;2022-11-27T05:00:23;7.20;95.70
4501;DHT22;2263;54.654;9.410;2022-11-27T05:02:50;7.20;95.70
4501;DHT22;2263;54.654;9.410;2022-11-27T05:05:17;7.20;95.70
4501;DHT22;2263;54.654;9.410;2022-11-27T05:07:44;7.20;95.70
4501;DHT22;2263;54.654;9.410;2022-11-27T05:10:11;7.20;95.60
4501;DHT22;2263;54.654;9.410;2022-11-27T05:12:39;7.20;95.70
4501;DHT22;2263;54.654;9.410;2022-11-27T05:15:06;7.20;95.60
4501;DHT22;2263;54.654;9.410;2022-11-27T05:17:34;7.20;95.60
4501;DHT22;2263;54.654;9.410;2022-11-27T05:20:01;7.20;95.60
4501;DHT22;2263;54.654;9.410;2022-11-27T05:22:28;7.10;95.60
4501;DHT22;2263;54.654;9.410;2022-11-27T05:24:55;7.10;95.50
4501;DHT22;2263;54.654;9.410;2022-11-27T05:27:22;7.10;95.50
4501;DHT22;2263;54.654;9.410;2022-11-27T05:29:49;7.10;95.50
4501;DHT22;2263;54.654;9.410;2022-11-27T05:32:17;7.10;95.50
4501;DHT22;2263;54.654;9.410;2022-11-27T05:34:44;7.10;95.30
4501;DHT22;2263;54.654;9.410;2022-11-27T05:37:11;7.10;95.40
4501;DHT22;2263;54.654;9.410;2022-11-27T05:39:45;7.10;95.50
4501;DHT22;2263;54.654;9.410;2022-11-27T05:42:12;7.10;95.40
4501;DHT22;2263;54.654;9.410;2022-11-27T05:44:39;7.00;95.30
4501;DHT22;2263;54.654;9.410;2022-11-27T05:47:06;7.00;95.30
4501;DHT22;2263;54.654;9.410;2022-11-27T05:49:34;7.00;95.30
4501;DHT22;2263;54.654;9.410;2022-11-27T05:52:01;7.00;95.30
4501;DHT22;2263;54.654;9.410;2022-11-27T05:54:28;7.00;95.30
4501;DHT22;2263;54.654;9.410;2022-11-27T05:56:55;7.00;95.20
4501;DHT22;2263;54.654;9.410;2022-11-27T05:59:22;7.00;95.20
4501;DHT22;2263;54.654;9.410;2022-11-27T06:01:50;7.00;95.20
4501;DHT22;2263;54.654;9.410;2022-11-27T06:04:17;7.00;95.20
4501;DHT22;2263;54.654;9.410;2022-11-27T06:06:44;6.90;95.10
4501;DHT22;2263;54.654;9.410;2022-11-27T06:09:11;7.00;95.10
4501;DHT22;2263;54.654;9.410;2022-11-27T06:11:40;6.90;95.00
4501;DHT22;2263;54.654;9.410;2022-11-27T06:14:08;6.90;95.00
4501;DHT22;2263;54.654;9.410;2022-11-27T06:16:36;6.90;95.10
4501;DHT22;2263;54.654;9.410;2022-11-27T06:19:03;6.90;95.00
4501;DHT22;2263;54.654;9.410;2022-11-27T06:21:30;6.90;95.00
4501;DHT22;2263;54.654;9.410;2022-11-27T06:23:58;6.90;95.00
4501;DHT22;2263;54.654;9.410;2022-11-27T06:26:27;6.90;95.00
4501;DHT22;2263;54.654;9.410;2022-11-27T06:28:56;6.90;95.00
4501;DHT22;2263;54.654;9.410;2022-11-27T06:31:26;6.90;94.90
4501;DHT22;2263;54.654;9.410;2022-11-27T06:33:54;6.80;94.80
4501;DHT22;2263;54.654;9.410;2022-11-27T06:36:24;6.80;94.90
4501;DHT22;2263;54.654;9.410;2022-11-27T06:38:51;6.80;94.90
4501;DHT22;2263;54.654;9.410;2022-11-27T06:41:20;6.80;94.90
4501;DHT22;2263;54.654;9.410;2022-11-27T06:43:47;6.80;94.80
4501;DHT22;2263;54.654;9.410;2022-11-27T06:46:16;6.80;94.80
4501;DHT22;2263;54.654;9.410;2022-11-27T06:48:45;6.70;94.80
4501;DHT22;2263;54.654;9.410;2022-11-27T06:51:21;6.70;94.70
4501;DHT22;2263;54.654;9.410;2022-11-27T06:53:49;6.70;94.80
4501;DHT22;2263;54.654;9.410;2022-11-27T06:56:19;6.70;94.70
4501;DHT22;2263;54.654;9.410;2022-11-27T06:58:53;6.70;94.70
4501;DHT22;2263;54.654;9.410;2022-11-27T07:01:21;6.70;94.80
4501;DHT22;2263;54.654;9.410;2022-11-27T07:03:48;6.70;94.80
4501;DHT22;2263;54.654;9.410;2022-11-27T07:06:20;6.70;94.70
4501;DHT22;2263;54.654;9.410;2022-11-27T07:08:48;6.70;94.70
4501;DHT22;2263;54.654;9.410;2022-11-27T07:11:18;6.70;94.60
4501;DHT22;2263;54.654;9.410;2022-11-27T07:13:47;6.70;94.70
4501;DHT22;2263;54.654;9.410;2022-11-27T07:16:15;6.70;94.60
4501;DHT22;2263;54.654;9.410;2022-11-27T07:18:46;6.70;94.60
4501;DHT22;2263;54.654;9.410;2022-11-27T07:21:13;6.70;94.60
4501;DHT22;2263;54.654;9.410;2022-11-27T07:23:42;6.60;94.60
4501;DHT22;2263;54.654;9.410;2022-11-27T07:26:12;6.60;94.60
4501;DHT22;2263;54.654;9.410;2022-11-27T07:28:40;6.60;94.60
4501;DHT22;2263;54.654;9.410;2022-11-27T07:31:12;6.60;94.50
4501;DHT22;2263;54.654;9.410;2022-11-27T07:33:40;6.60;94.50
4501;DHT22;2263;54.654;9.410;2022-11-27T07:36:19;6.60;94.50
4501;DHT22;2263;54.654;9.410;2022-11-27T07:38:47;6.60;94.50
4501;DHT22;2263;54.654;9.410;2022-11-27T07:41:15;6.60;94.50
4501;DHT22;2263;54.654;9.410;2022-11-27T07:43:43;6.60;94.40
4501;DHT22;2263;54.654;9.410;2022-11-27T07:46:22;6.60;94.40
4501;DHT22;2263;54.654;9.410;2022-11-27T07:48:49;6.50;94.40
4501;DHT22;2263;54.654;9.410;2022-11-27T07:51:19;6.50;94.40
4501;DHT22;2263;54.654;9.410;2022-11-27T07:53:46;6.50;94.50
4501;DHT22;2263;54.654;9.410;2022-11-27T07:56:15;6.50;94.40
4501;DHT22;2263;54.654;9.410;2022-11-27T07:58:42;6.50;94.40
4501;DHT22;2263;54.654;9.410;2022-11-27T08:01:12;6.50;94.50
4501;DHT22;2263;54.654;9.410;2022-11-27T08:03:40;6.50;94.50
4501;DHT22;2263;54.654;9.410;2022-11-27T08:06:24;6.50;94.40
4501;DHT22;2263;54.654;9.410;2022-11-27T08:08:52;6.50;94.40
4501;DHT22;2263;54.654;9.410;2022-11-27T08:11:27;6.50;94.50
4501;DHT22;2263;54.654;9.410;2022-11-27T08:14:04;6.50;94.40
4501;DHT22;2263;54.654;9.410;2022-11-27T08:16:32;6.50;94.50
4501;DHT22;2263;54.654;9.410;2022-11-27T08:19:00;6.50;94.50
4501;DHT22;2263;54.654;9.410;2022-11-27T08:21:28;6.50;94.50
4501;DHT22;2263;54.654;9.410;2022-11-27T08:23:56;6.50;94.50
4501;DHT22;2263;54.654;9.410;2022-11-27T08:26:24;6.50;94.50
4501;DHT22;2263;54.654;9.410;2022-11-27T08:28:54;6.50;94.50
4501;DHT22;2263;54.654;9.410;2022-11-27T08:31:22;6.50;94.50
4501;DHT22;2263;54.654;9.410;2022-11-27T08:33:49;6.40;94.50
4501;DHT22;2263;54.654;9.410;2022-11-27T08:36:16;6.40;94.50
4501;DHT22;2263;54.654;9.410;2022-11-27T08:38:45;6.40;94.50
4501;DHT22;2263;54.654;9.410;2022-11-27T08:41:12;6.40;94.50
4501;DHT22;2263;54.654;9.410;2022-11-27T08:43:39;6.40;94.50
4501;DHT22;2263;54.654;9.410;2022-11-27T08:46:07;6.50;94.50
4501;DHT22;2263;54.654;9.410;2022-11-27T08:48:35;6.40;94.50
4501;DHT22;2263;54.654;9.410;2022-11-27T08:51:07;6.50;94.50
4501;DHT22;2263;54.654;9.410;2022-11-27T08:53:35;6.40;94.50
4501;DHT22;2263;54.654;9.410;2022-11-27T08:56:09;6.40;94.50
4501;DHT22;2263;54.654;9.410;2022-11-27T08:58:37;6.40;94.50
4501;DHT22;2263;54.654;9.410;2022-11-27T09:01:19;6.40;94.50
4501;DHT22;2263;54.654;9.410;2022-11-27T09:03:47;6.40;94.60
4501;DHT22;2263;54.654;9.410;2022-11-27T09:06:28;6.40;94.60
4501;DHT22;2263;54.654;9.410;2022-11-27T09:08:57;6.40;94.70
4501;DHT22;2263;54.654;9.410;2022-11-27T09:11:25;6.40;94.70
4501;DHT22;2263;54.654;9.410;2022-11-27T09:13:52;6.40;94.60
4501;DHT22;2263;54.654;9.410;2022-11-27T09:16:21;6.40;94.70
4501;DHT22;2263;54.654;9.410;2022-11-27T09:18:49;6.40;94.70
4501;DHT22;2263;54.654;9.410;2022-11-27T09:21:19;6.50;94.80
4501;DHT22;2263;54.654;9.410;2022-11-27T09:23:47;6.50;94.80
4501;DHT22;2263;54.654;9.410;2022-11-27T09:26:15;6.50;94.80
4501;DHT22;2263;54.654;9.410;2022-11-27T09:28:43;6.50;94.90
4501;DHT22;2263;54.654;9.410;2022-11-27T09:31:13;6.50;94.90
4501;DHT22;2263;54.654;9.410;2022-11-27T09:33:41;6.50;94.70
4501;DHT22;2263;54.654;9.410;2022-11-27T09:36:13;6.50;94.70
4501;DHT22;2263;54.654;9.410;2022-11-27T09:38:41;6.50;94.70
4501;DHT22;2263;54.654;9.410;2022-11-27T09:46:51;6.40;94.70
4501;DHT22;2263;54.654;9.410;2022-11-27T09:54:49;6.50;94.80
4501;DHT22;2263;54.654;9.410;2022-11-27T09:57:29;6.50;94.80
4501;DHT22;2263;54.654;9.410;2022-11-27T10:00:02;6.50;94.80
4501;DHT22;2263;54.654;9.410;2022-11-27T10:02:32;6.50;94.80
4501;DHT22;2263;54.654;9.410;2022-11-27T10:05:03;6.50;94.90
4501;DHT22;2263;54.654;9.410;2022-11-27T10:16:37;6.50;94.80
4501;DHT22;2263;54.654;9.410;2022-11-27T10:19:38;6.50;94.80
4501;DHT22;2263;54.654;9.410;2022-11-27T10:27:39;6.50;94.80
4501;DHT22;2263;54.654;9.410;2022-11-27T10:30:19;6.50;94.80
4501;DHT22;2263;54.654;9.410;2022-11-27T10:32:51;6.50;94.80
4501;DHT22;2263;54.654;9.410;2022-11-27T10:35:30;6.50;94.80
4501;DHT22;2263;54.654;9.410;2022-11-27T10:38:12;6.50;94.90
4501;DHT22;2263;54.654;9.410;2022-11-27T10:43:29;6.50;94.80
4501;DHT22;2263;54.654;9.410;2022-11-27T10:46:19;6.50;94.80
4501;DHT22;2263;54.654;9.410;2022-11-27T10:48:47;6.50;94.80
4501;DHT22;2263;54.654;9.410;2022-11-27T10:51:18;6.50;94.80
4501;DHT22;2263;54.654;9.410;2022-11-27T10:53:51;6.50;94.80
4501;DHT22;2263;54.654;9.410;2022-11-27T10:56:46;6.40;94.70
4501;DHT22;2263;54.654;9.410;2022-11-27T10:59:22;6.50;94.80
4501;DHT22;2263;54.654;9.410;2022-11-27T11:01:57;6.50;94.90
4501;DHT22;2263;54.654;9.410;2022-11-27T11:04:28;6.50;94.80
4501;DHT22;2263;54.654;9.410;2022-11-27T11:07:27;6.40;94.70
4501;DHT22;2263;54.654;9.410;2022-11-27T11:09:55;6.40;94.70
4501;DHT22;2263;54.654;9.410;2022-11-27T11:12:23;6.40;94.80
4501;DHT22;2263;54.654;9.410;2022-11-27T11:14:58;6.40;94.80
4501;DHT22;2263;54.654;9.410;2022-11-27T11:17:30;6.50;94.90
4501;DHT22;2263;54.654;9.410;2022-11-27T11:20:23;6.40;94.80
4501;DHT22;2263;54.654;9.410;2022-11-27T11:22:50;6.40;94.80
4501;DHT22;2263;54.654;9.410;2022-11-27T11:25:19;6.40;94.80
4501;DHT22;2263;54.654;9.410;2022-11-27T11:27:49;6.40;94.70
4501;DHT22;2263;54.654;9.410;2022-11-27T11:30:26;6.40;94.70
4501;DHT22;2263;54.654;9.410;2022-11-27T11:33:02;6.40;94.80
4501;DHT22;2263;54.654;9.410;2022-11-27T11:35:33;6.40;94.80
4501;DHT22;2263;54.654;9.410;2022-11-27T11:38:14;6.40;94.90
4501;DHT22;2263;54.654;9.410;2022-11-27T11:40:42;6.40;94.80
4501;DHT22;2263;54.654;9.410;2022-11-27T11:43:30;6.40;94.80
4501;DHT22;2263;54.654;9.410;2022-11-27T11:48:33;6.40;94.80
4501;DHT22;2263;54.654;9.410;2022-11-27T11:53:42;6.40;94.90
4501;DHT22;2263;54.654;9.410;2022-11-27T11:56:34;6.40;94.90
4501;DHT22;2263;54.654;9.410;2022-11-27T11:59:31;6.40;94.80
4501;DHT22;2263;54.654;9.410;2022-11-27T12:07:58;6.40;94.90
4501;DHT22;2263;54.654;9.410;2022-11-27T12:16:15;6.40;94.80
4501;DHT22;2263;54.654;9.410;2022-11-27T12:27:58;6.40;94.80
4501;DHT22;2263;54.654;9.410;2022-11-27T12:30:21;6.40;94.80
4501;DHT22;2263;54.654;9.410;2022-11-27T12:33:17;6.40;94.80
4501;DHT22;2263;54.654;9.410;2022-11-27T12:36:32;6.40;94.80
4501;DHT22;2263;54.654;9.410;2022-11-27T12:39:58;6.40;94.80
4501;DHT22;2263;54.654;9.410;2022-11-27T12:42:21;6.40;94.80
4501;DHT22;2263;54.654;9.410;2022-11-27T12:44:57;6.40;94.80
4501;DHT22;2263;54.654;9.410;2022-11-27T12:47:38;6.40;94.80
4501;DHT22;2263;54.654;9.410;2022-11-27T12:53:14;6.40;94.80
4501;DHT22;2263;54.654;9.410;2022-11-27T12:58:34;6.40;94.70
4501;DHT22;2263;54.654;9.410;2022-11-27T13:01:14;6.40;94.80
4501;DHT22;2263;54.654;9.410;2022-11-27T13:06:33;6.40;94.80
4501;DHT22;2263;54.654;9.410;2022-11-27T13:09:09;6.40;94.70
4501;DHT22;2263;54.654;9.410;2022-11-27T13:11:40;6.40;94.80
4501;DHT22;2263;54.654;9.410;2022-11-27T13:14:11;6.40;94.70
4501;DHT22;2263;54.654;9.410;2022-11-27T13:16:43;6.40;94.70
4501;DHT22;2263;54.654;9.410;2022-11-27T13:22:08;6.40;94.80
4501;DHT22;2263;54.654;9.410;2022-11-27T13:24:37;6.40;94.80
4501;DHT22;2263;54.654;9.410;2022-11-27T13:27:21;6.40;94.80
4501;DHT22;2263;54.654;9.410;2022-11-27T13:29:56;6.40;94.70
4501;DHT22;2263;54.654;9.410;2022-11-27T13:32:42;6.40;94.70
4501;DHT22;2263;54.654;9.410;2022-11-27T13:35:37;6.40;94.70
4501;DHT22;2263;54.654;9.410;2022-11-27T13:38:18;6.30;94.70
4501;DHT22;2263;54.654;9.410;2022-11-27T13:40:49;6.30;94.60
4501;DHT22;2263;54.654;9.410;2022-11-27T13:43:23;6.30;94.70
4501;DHT22;2263;54.654;9.410;2022-11-27T13:46:04;6.30;94.70
4501;DHT22;2263;54.654;9.410;2022-11-27T13:48:38;6.30;94.70
4501;DHT22;2263;54.654;9.410;2022-11-27T13:51:08;6.30;94.60
4501;DHT22;2263;54.654;9.410;2022-11-27T13:53:40;6.30;94.70
4501;DHT22;2263;54.654;9.410;2022-11-27T13:56:08;6.30;94.60
4501;DHT22;2263;54.654;9.410;2022-11-27T13:58:38;6.30;94.70
4501;DHT22;2263;54.654;9.410;2022-11-27T14:01:22;6.30;94.60
4501;DHT22;2263;54.654;9.410;2022-11-27T14:03:50;6.30;94.60
4501;DHT22;2263;54.654;9.410;2022-11-27T14:06:25;6.30;94.60
4501;DHT22;2263;54.654;9.410;2022-11-27T14:11:39;6.30;94.60
4501;DHT22;2263;54.654;9.410;2022-11-27T14:14:20;6.30;94.60
4501;DHT22;2263;54.654;9.410;2022-11-27T14:17:01;6.30;94.70
4501;DHT22;2263;54.654;9.410;2022-11-27T14:19:42;6.30;94.60
4501;DHT22;2263;54.654;9.410;2022-11-27T14:22:33;6.20;94.60
4501;DHT22;2263;54.654;9.410;2022-11-27T14:25:24;6.30;94.60
4501;DHT22;2263;54.654;9.410;2022-11-27T14:30:51;6.30;94.60
4501;DHT22;2263;54.654;9.410;2022-11-27T14:33:22;6.30;94.60
4501;DHT22;2263;54.654;9.410;2022-11-27T14:35:58;6.30;94.60
4501;DHT22;2263;54.654;9.410;2022-11-27T14:38:27;6.30;94.60
4501;DHT22;2263;54.654;9.410;2022-11-27T14:41:07;6.30;94.60
4501;DHT22;2263;54.654;9.410;2022-11-27T14:43:35;6.30;94.60
4501;DHT22;2263;54.654;9.410;2022-11-27T14:46:04;6.20;94.60
4501;DHT22;2263;54.654;9.410;2022-11-27T14:51:16;6.20;94.50
4501;DHT22;2263;54.654;9.410;2022-11-27T14:53:49;6.20;94.60
4501;DHT22;2263;54.654;9.410;2022-11-27T14:56:18;6.30;94.60
4501;DHT22;2263;54.654;9.410;2022-11-27T14:58:52;6.20;94.50
4501;DHT22;2263;54.654;9.410;2022-11-27T15:01:25;6.20;94.60
4501;DHT22;2263;54.654;9.410;2022-11-27T15:04:04;6.20;94.50
4501;DHT22;2263;54.654;9.410;2022-11-27T15:06:35;6.20;94.60
4501;DHT22;2263;54.654;9.410;2022-11-27T15:09:05;6.20;94.50
4501;DHT22;2263;54.654;9.410;2022-11-27T15:14:25;6.20;94.50
4501;DHT22;2263;54.654;9.410;2022-11-27T15:16:54;6.20;94.60
4501;DHT22;2263;54.654;9.410;2022-11-27T15:19:31;6.20;94.50
4501;DHT22;2263;54.654;9.410;2022-11-27T15:22:00;6.20;94.50
4501;DHT22;2263;54.654;9.410;2022-11-27T15:24:31;6.20;94.50
4501;DHT22;2263;54.654;9.410;2022-11-27T15:32:19;6.20;94.50
4501;DHT22;2263;54.654;9.410;2022-11-27T15:34:50;6.20;94.90
4501;DHT22;2263;54.654;9.410;2022-11-27T15:37:26;6.20;94.50
4501;DHT22;2263;54.654;9.410;2022-11-27T15:39:55;6.20;94.60
4501;DHT22;2263;54.654;9.410;2022-11-27T15:42:23;6.20;94.50
4501;DHT22;2263;54.654;9.410;2022-11-27T15:44:55;6.20;94.50
4501;DHT22;2263;54.654;9.410;2022-11-27T15:49:54;6.20;94.50
4501;DHT22;2263;54.654;9.410;2022-11-27T15:52:21;6.20;94.50
4501;DHT22;2263;54.654;9.410;2022-11-27T15:54:49;6.20;94.50
4501;DHT22;2263;54.654;9.410;2022-11-27T15:57:17;6.20;94.50
4501;DHT22;2263;54.654;9.410;2022-11-27T15:59:44;6.20;94.50
4501;DHT22;2263;54.654;9.410;2022-11-27T16:02:12;6.20;94.50
4501;DHT22;2263;54.654;9.410;2022-11-27T16:04:44;6.20;94.50
4501;DHT22;2263;54.654;9.410;2022-11-27T16:07:11;6.20;94.50
4501;DHT22;2263;54.654;9.410;2022-11-27T16:09:38;6.20;94.50
4501;DHT22;2263;54.654;9.410;2022-11-27T16:12:06;6.20;94.50
4501;DHT22;2263;54.654;9.410;2022-11-27T16:14:33;6.10;94.50
4501;DHT22;2263;54.654;9.410;2022-11-27T16:17:00;6.20;94.50
4501;DHT22;2263;54.654;9.410;2022-11-27T16:19:27;6.20;94.50
4501;DHT22;2263;54.654;9.410;2022-11-27T16:21:55;6.20;94.50
4501;DHT22;2263;54.654;9.410;2022-11-27T16:24:23;6.10;94.40
4501;DHT22;2263;54.654;9.410;2022-11-27T16:26:50;6.10;94.50
4501;DHT22;2263;54.654;9.410;2022-11-27T16:29:17;6.10;94.40
4501;DHT22;2263;54.654;9.410;2022-11-27T16:31:44;6.10;94.40
4501;DHT22;2263;54.654;9.410;2022-11-27T16:34:14;6.10;94.40
4501;DHT22;2263;54.654;9.410;2022-11-27T16:36:42;6.10;94.40
4501;DHT22;2263;54.654;9.410;2022-11-27T16:39:10;6.10;94.50
4501;DHT22;2263;54.654;9.410;2022-11-27T16:41:38;6.10;94.40
4501;DHT22;2263;54.654;9.410;2022-11-27T16:44:10;6.10;94.40
4501;DHT22;2263;54.654;9.410;2022-11-27T16:46:39;6.10;94.50
4501;DHT22;2263;54.654;9.410;2022-11-27T16:49:07;6.10;94.70
4501;DHT22;2263;54.654;9.410;2022-11-27T16:51:36;6.10;94.40
4501;DHT22;2263;54.654;9.410;2022-11-27T16:54:08;6.10;94.50
4501;DHT22;2263;54.654;9.410;2022-11-27T16:56:36;6.10;94.50
4501;DHT22;2263;54.654;9.410;2022-11-27T16:59:13;6.10;94.40
4501;DHT22;2263;54.654;9.410;2022-11-27T17:01:40;6.10;94.50
4501;DHT22;2263;54.654;9.410;2022-11-27T17:04:14;6.10;94.50
4501;DHT22;2263;54.654;9.410;2022-11-27T17:06:42;6.10;94.50
4501;DHT22;2263;54.654;9.410;2022-11-27T17:09:09;6.10;94.50
4501;DHT22;2263;54.654;9.410;2022-11-27T17:11:41;6.10;94.50
4501;DHT22;2263;54.654;9.410;2022-11-27T17:14:08;6.10;94.50
4501;DHT22;2263;54.654;9.410;2022-11-27T17:16:37;6.10;94.50
4501;DHT22;2263;54.654;9.410;2022-11-27T17:19:12;6.10;94.50
4501;DHT22;2263;54.654;9.410;2022-11-27T17:21:40;6.10;94.50
4501;DHT22;2263;54.654;9.410;2022-11-27T17:24:10;6.10;94.50
4501;DHT22;2263;54.654;9.410;2022-11-27T17:26:41;6.10;94.40
4501;DHT22;2263;54.654;9.410;2022-11-27T17:29:11;6.10;94.40
4501;DHT22;2263;54.654;9.410;2022-11-27T17:31:39;6.10;94.50
4501;DHT22;2263;54.654;9.410;2022-11-27T17:34:08;6.10;94.50
4501;DHT22;2263;54.654;9.410;2022-11-27T17:36:36;6.10;94.50
4501;DHT22;2263;54.654;9.410;2022-11-27T17:39:05;6.10;94.40
4501;DHT22;2263;54.654;9.410;2022-11-27T17:41:33;6.10;94.50
4501;DHT22;2263;54.654;9.410;2022-11-27T17:44:02;6.10;94.50
4501;DHT22;2263;54.654;9.410;2022-11-27T17:46:32;6.10;94.50
4501;DHT22;2263;54.654;9.410;2022-11-27T17:49:01;6.10;94.50
4501;DHT22;2263;54.654;9.410;2022-11-27T17:51:30;6.10;94.60
4501;DHT22;2263;54.654;9.410;2022-11-27T17:54:01;6.00;94.50
4501;DHT22;2263;54.654;9.410;2022-11-27T17:56:28;6.10;94.60
4501;DHT22;2263;54.654;9.410;2022-11-27T17:58:56;6.10;94.50
4501;DHT22;2263;54.654;9.410;2022-11-27T18:01:24;6.10;94.50
4501;DHT22;2263;54.654;9.410;2022-11-27T18:03:57;6.10;94.50
4501;DHT22;2263;54.654;9.410;2022-11-27T18:06:30;6.10;94.50
4501;DHT22;2263;54.654;9.410;2022-11-27T18:08:58;6.10;94.60
4501;DHT22;2263;54.654;9.410;2022-11-27T18:11:28;6.10;94.50
4501;DHT22;2263;54.654;9.410;2022-11-27T18:13:55;6.10;94.50
4501;DHT22;2263;54.654;9.410;2022-11-27T18:16:25;6.10;94.50
4501;DHT22;2263;54.654;9.410;2022-11-27T18:18:56;6.10;94.60
4501;DHT22;2263;54.654;9.410;2022-11-27T18:21:24;6.00;94.50
4501;DHT22;2263;54.654;9.410;2022-11-27T18:23:55;6.10;94.50
4501;DHT22;2263;54.654;9.410;2022-11-27T18:26:42;6.00;94.40
4501;DHT22;2263;54.654;9.410;2022-11-27T18:29:29;6.00;94.50
4501;DHT22;2263;54.654;9.410;2022-11-27T18:31:56;6.10;94.60
4501;DHT22;2263;54.654;9.410;2022-11-27T18:34:24;6.10;94.60
4501;DHT22;2263;54.654;9.410;2022-11-27T18:36:51;6.10;94.50
4501;DHT22;2263;54.654;9.410;2022-11-27T18:39:23;6.10;94.50